»·PEaware :: N264TL L88-KSBP

N264TL :: L88-KSBP

FLIGHT INFORMATION

Flight Status: Arrived
Operator: Privately registered:
United States
More flights under this callsign
Pilot: Tobias L. (36933)
Aircraft: CESSNA 172 SKYHAWK
(C172)
More flights by this aircraft type
Origin: L88 New Cuyama
United States
Destination: KSBP San Luis Co Regl
United States
More flights between these airports :: More routes between these airports
Route: POZOE
File this flight plan on PilotEdge
Remarks:
Altitude:
(Current/Filed)
4,500ft
Speed:
(Current/Filed)
150kts
Departed: 05-Nov-21 04:45 PM
Arrived: 05-Nov-21 05:24 PM
Distance/Time
Traveled:
50nm/0:39
Distance/Time
To Go:
Arrived

Flight Plot

Page will automatically refresh every two minutes.


Map Options




Map Legend


Flown Route
Filed Route
Departure Airport
Arrival Airport
Navaid (VOR, NDB)
Fix

Horizontal Profiles

Position Reports

Time Latitude Longitude Heading Altitude Ground
Speed
05-Nov-21 16:38 34.942950 -119.690498 201 2156ft 0kts
05-Nov-21 16:39 34.942950 -119.690498 201 2156ft 0kts
05-Nov-21 16:40 34.942950 -119.690498 201 2156ft 0kts
05-Nov-21 16:41 34.942905 -119.690910 250 2155ft 10kts
05-Nov-21 16:42 34.942493 -119.691043 133 2156ft 0kts
05-Nov-21 16:43 34.939858 -119.685493 116 2177ft 40kts
05-Nov-21 16:44 34.938413 -119.681837 296 2192ft 51kts
05-Nov-21 16:45 34.947609 -119.704971 295 2724ft 78kts
05-Nov-21 16:46 34.956768 -119.727689 294 3499ft 78kts
05-Nov-21 16:47 34.964574 -119.747291 293 4177ft 79kts
05-Nov-21 16:48 34.971931 -119.765806 294 4457ft 97kts
05-Nov-21 16:49 34.979659 -119.785107 294 4455ft 105kts
05-Nov-21 16:50 34.987526 -119.804854 294 4454ft 107kts
05-Nov-21 16:51 34.995553 -119.825074 294 4454ft 107kts
05-Nov-21 16:52 35.003461 -119.845019 294 4467ft 106kts
05-Nov-21 16:53 35.011475 -119.865255 294 4491ft 106kts
05-Nov-21 16:54 35.019669 -119.885958 294 4491ft 107kts
05-Nov-21 16:55 35.027801 -119.906509 294 4490ft 107kts
05-Nov-21 16:56 35.036095 -119.927487 294 4490ft 107kts
05-Nov-21 16:57 35.044717 -119.949175 294 4491ft 107kts
05-Nov-21 16:58 35.055825 -119.977403 294 4492ft 106kts
05-Nov-21 16:59 35.066889 -120.005490 294 4493ft 106kts
05-Nov-21 17:00 35.076036 -120.028696 294 4496ft 106kts
05-Nov-21 17:01 35.085304 -120.052228 294 4480ft 106kts
05-Nov-21 17:02 35.095605 -120.078396 293 4482ft 105kts
05-Nov-21 17:03 35.108251 -120.110556 293 4484ft 104kts
05-Nov-21 17:04 35.120666 -120.142158 293 4486ft 103kts
05-Nov-21 17:05 35.133036 -120.173675 293 4488ft 103kts
05-Nov-21 17:06 35.145061 -120.204409 293 4489ft 102kts
05-Nov-21 17:07 35.156776 -120.234255 293 4489ft 102kts
05-Nov-21 17:08 35.165273 -120.265247 283 4489ft 101kts
05-Nov-21 17:09 35.171425 -120.296621 283 4488ft 101kts
05-Nov-21 17:10 35.177013 -120.325628 283 4487ft 101kts
05-Nov-21 17:11 35.181563 -120.349312 283 4486ft 101kts
05-Nov-21 17:12 35.186264 -120.373818 283 4485ft 101kts
05-Nov-21 17:13 35.190582 -120.396273 284 4166ft 100kts
05-Nov-21 17:14 35.195352 -120.421167 284 3646ft 99kts
05-Nov-21 17:15 35.200916 -120.450332 285 3483ft 87kts
05-Nov-21 17:16 35.206608 -120.480175 285 3455ft 92kts
05-Nov-21 17:17 35.211258 -120.508153 279 3006ft 101kts
05-Nov-21 17:18 35.213373 -120.537520 279 2454ft 100kts
05-Nov-21 17:19 35.215384 -120.566403 281 1880ft 99kts
05-Nov-21 17:20 35.218218 -120.595592 286 1262ft 80kts
05-Nov-21 17:21 35.223385 -120.615145 303 750ft 57kts
05-Nov-21 17:22 35.229708 -120.627491 308 396ft 59kts
05-Nov-21 17:23 35.237521 -120.639920 7 216ft 0kts
05-Nov-21 17:24 35.238143 -120.640665 297 216ft 15kts
05-Nov-21 17:25 35.240797 -120.642997 359 216ft 0kts
05-Nov-21 17:26 35.240765 -120.643032 173 216ft 0kts
05-Nov-21 17:27 35.240765 -120.643032 173 216ft 0kts
05-Nov-21 17:28 35.240765 -120.643032 173 216ft 0kts

Navigation Log

Ident Type
Flight plan parsing failed, navigation log unavailable